Terminal Aerodrome Forecast
Issued by NWS Lake Charles, LA

Home | Current Version | Previous Version | Text Only | Print | Product List | Glossary On
Versions: 1 2 3 4 5 6 7 8 9 10 11 12 13
259
FTUS44 KLCH 170520
TAFLFT
TAF
KLFT 170520Z 1706/1806 11010KT P6SM VCSH BKN020
     FM170900 13012G18KT P6SM -SHRA OVC009
      TEMPO 1709/1713 2SM TSRA BR OVC007CB
     FM171500 01010KT P6SM -SHRA OVC025
     FM171800 VRB03KT P6SM OVC050=

USA.gov is the U.S. government's official web portal to all federal, state and local government web resources and services.